sensor_id;sensor_type;location;lat;lon;timestamp;pressure;altitude;pressure_sealevel;temperature;humidity
6853;BME280;3465;42.144;24.722;2024-01-16T00:01:45;98431.19;;;1.52;70.41
6853;BME280;3465;42.144;24.722;2024-01-16T00:04:11;98439.41;;;1.77;69.37
6853;BME280;3465;42.144;24.722;2024-01-16T00:06:40;98441.03;;;1.78;69.17
6853;BME280;3465;42.144;24.722;2024-01-16T00:09:06;98435.59;;;1.67;69.85
6853;BME280;3465;42.144;24.722;2024-01-16T00:11:31;98431.38;;;1.66;69.97
6853;BME280;3465;42.144;24.722;2024-01-16T00:13:57;98437.34;;;1.48;70.59
6853;BME280;3465;42.144;24.722;2024-01-16T00:16:22;98425.47;;;1.47;70.53
6853;BME280;3465;42.144;24.722;2024-01-16T00:18:48;98448.88;;;1.56;70.43
6853;BME280;3465;42.144;24.722;2024-01-16T00:21:13;98440.94;;;1.44;70.99
6853;BME280;3465;42.144;24.722;2024-01-16T00:23:39;98439.97;;;1.46;71.32
6853;BME280;3465;42.144;24.722;2024-01-16T00:26:04;98440.44;;;1.54;70.92
6853;BME280;3465;42.144;24.722;2024-01-16T00:28:31;98444.53;;;1.40;71.48
6853;BME280;3465;42.144;24.722;2024-01-16T00:30:57;98452.88;;;1.43;71.52
6853;BME280;3465;42.144;24.722;2024-01-16T00:33:22;98456.75;;;1.33;71.83
6853;BME280;3465;42.144;24.722;2024-01-16T00:35:48;98444.53;;;1.40;71.58
6853;BME280;3465;42.144;24.722;2024-01-16T00:38:14;98438.72;;;1.18;72.17
6853;BME280;3465;42.144;24.722;2024-01-16T00:40:39;98453.66;;;1.27;72.03
6853;BME280;3465;42.144;24.722;2024-01-16T00:43:05;98453.28;;;1.16;71.80
6853;BME280;3465;42.144;24.722;2024-01-16T00:45:30;98436.84;;;1.21;71.58
6853;BME280;3465;42.144;24.722;2024-01-16T00:47:56;98449.84;;;1.35;71.48
6853;BME280;3465;42.144;24.722;2024-01-16T00:50:21;98434.19;;;1.43;70.86
6853;BME280;3465;42.144;24.722;2024-01-16T00:52:47;98422.25;;;1.23;71.75
6853;BME280;3465;42.144;24.722;2024-01-16T00:55:12;98431.69;;;1.23;72.02
6853;BME280;3465;42.144;24.722;2024-01-16T00:57:38;98429.38;;;1.35;71.15
6853;BME280;3465;42.144;24.722;2024-01-16T01:00:04;98427.66;;;1.17;71.72
6853;BME280;3465;42.144;24.722;2024-01-16T01:02:30;98427.31;;;1.25;71.71
6853;BME280;3465;42.144;24.722;2024-01-16T01:04:56;98432.91;;;1.14;72.08
6853;BME280;3465;42.144;24.722;2024-01-16T01:07:21;98414.25;;;1.12;72.25
6853;BME280;3465;42.144;24.722;2024-01-16T01:09:47;98421.19;;;1.29;71.49
6853;BME280;3465;42.144;24.722;2024-01-16T01:12:12;98410.50;;;1.19;71.48
6853;BME280;3465;42.144;24.722;2024-01-16T01:14:38;98420.03;;;0.97;72.56
6853;BME280;3465;42.144;24.722;2024-01-16T01:17:03;98421.97;;;0.92;72.50
6853;BME280;3465;42.144;24.722;2024-01-16T01:19:29;98419.75;;;0.84;72.92
6853;BME280;3465;42.144;24.722;2024-01-16T01:21:54;98410.38;;;0.65;73.89
6853;BME280;3465;42.144;24.722;2024-01-16T01:24:20;98399.34;;;0.83;73.04
6853;BME280;3465;42.144;24.722;2024-01-16T01:26:45;98397.91;;;0.77;72.92
6853;BME280;3465;42.144;24.722;2024-01-16T01:29:11;98383.75;;;0.70;73.38
6853;BME280;3465;42.144;24.722;2024-01-16T01:31:36;98385.88;;;0.79;73.20
6853;BME280;3465;42.144;24.722;2024-01-16T01:34:02;98383.97;;;0.84;72.89
6853;BME280;3465;42.144;24.722;2024-01-16T01:36:28;98373.44;;;0.72;72.92
6853;BME280;3465;42.144;24.722;2024-01-16T01:38:53;98383.13;;;0.45;73.81
6853;BME280;3465;42.144;24.722;2024-01-16T01:41:19;98386.69;;;0.41;74.34
6853;BME280;3465;42.144;24.722;2024-01-16T01:43:44;98389.13;;;0.44;74.33
6853;BME280;3465;42.144;24.722;2024-01-16T01:46:13;98392.97;;;0.54;73.81
6853;BME280;3465;42.144;24.722;2024-01-16T01:48:41;98392.31;;;0.49;73.91
6853;BME280;3465;42.144;24.722;2024-01-16T01:51:12;98398.88;;;0.55;74.11
6853;BME280;3465;42.144;24.722;2024-01-16T01:53:39;98419.31;;;0.55;73.61
6853;BME280;3465;42.144;24.722;2024-01-16T01:56:08;98419.19;;;0.58;73.09
6853;BME280;3465;42.144;24.722;2024-01-16T01:58:36;98411.66;;;0.55;73.71
6853;BME280;3465;42.144;24.722;2024-01-16T02:01:05;98410.97;;;0.51;73.66
6853;BME280;3465;42.144;24.722;2024-01-16T02:03:39;98409.34;;;0.49;73.65
6853;BME280;3465;42.144;24.722;2024-01-16T02:06:06;98370.75;;;0.36;74.05
6853;BME280;3465;42.144;24.722;2024-01-16T02:08:32;98404.72;;;0.58;73.13
6853;BME280;3465;42.144;24.722;2024-01-16T02:10:58;98410.84;;;0.54;73.52
6853;BME280;3465;42.144;24.722;2024-01-16T02:13:23;98400.38;;;0.60;73.44
6853;BME280;3465;42.144;24.722;2024-01-16T02:15:50;98406.78;;;0.69;72.55
6853;BME280;3465;42.144;24.722;2024-01-16T02:18:16;98404.19;;;0.70;72.49
6853;BME280;3465;42.144;24.722;2024-01-16T02:20:42;98418.44;;;0.56;73.35
6853;BME280;3465;42.144;24.722;2024-01-16T02:23:10;98412.94;;;0.45;73.73
6853;BME280;3465;42.144;24.722;2024-01-16T02:25:35;98384.28;;;0.18;74.26
6853;BME280;3465;42.144;24.722;2024-01-16T02:28:02;98411.97;;;0.27;74.96
6853;BME280;3465;42.144;24.722;2024-01-16T02:30:28;98422.44;;;0.41;74.47
6853;BME280;3465;42.144;24.722;2024-01-16T02:32:54;98418.13;;;0.43;74.39
6853;BME280;3465;42.144;24.722;2024-01-16T02:35:19;98414.59;;;0.46;74.61
6853;BME280;3465;42.144;24.722;2024-01-16T02:37:45;98419.13;;;0.59;74.38
6853;BME280;3465;42.144;24.722;2024-01-16T02:40:11;98418.19;;;0.62;74.01
6853;BME280;3465;42.144;24.722;2024-01-16T02:42:36;98415.63;;;0.62;74.39
6853;BME280;3465;42.144;24.722;2024-01-16T02:45:05;98429.75;;;0.50;75.01
6853;BME280;3465;42.144;24.722;2024-01-16T02:47:32;98414.34;;;0.52;74.92
6853;BME280;3465;42.144;24.722;2024-01-16T02:49:58;98406.84;;;0.67;74.80
6853;BME280;3465;42.144;24.722;2024-01-16T02:52:24;98403.00;;;0.77;73.80
6853;BME280;3465;42.144;24.722;2024-01-16T02:54:49;98410.47;;;0.82;73.55
6853;BME280;3465;42.144;24.722;2024-01-16T02:57:15;98426.78;;;0.79;73.99
6853;BME280;3465;42.144;24.722;2024-01-16T02:59:46;98400.38;;;0.79;73.40
6853;BME280;3465;42.144;24.722;2024-01-16T03:02:12;98415.72;;;0.59;74.39
6853;BME280;3465;42.144;24.722;2024-01-16T03:04:38;98427.19;;;0.70;73.95
6853;BME280;3465;42.144;24.722;2024-01-16T03:07:04;98444.59;;;0.61;74.35
6853;BME280;3465;42.144;24.722;2024-01-16T03:09:30;98413.78;;;0.45;75.28
6853;BME280;3465;42.144;24.722;2024-01-16T03:11:56;98433.88;;;0.53;74.46
6853;BME280;3465;42.144;24.722;2024-01-16T03:14:21;98436.31;;;0.56;74.69
6853;BME280;3465;42.144;24.722;2024-01-16T03:16:47;98432.56;;;0.64;74.35
6853;BME280;3465;42.144;24.722;2024-01-16T03:19:13;98437.44;;;0.69;73.73
6853;BME280;3465;42.144;24.722;2024-01-16T03:21:38;98436.38;;;0.74;73.50
6853;BME280;3465;42.144;24.722;2024-01-16T03:24:05;98432.56;;;0.64;73.91
6853;BME280;3465;42.144;24.722;2024-01-16T03:26:31;98432.56;;;0.64;73.76
6853;BME280;3465;42.144;24.722;2024-01-16T03:28:57;98423.66;;;0.73;72.72
6853;BME280;3465;42.144;24.722;2024-01-16T03:31:23;98432.72;;;0.80;72.69
6853;BME280;3465;42.144;24.722;2024-01-16T03:33:48;98429.25;;;0.81;72.47
6853;BME280;3465;42.144;24.722;2024-01-16T03:36:14;98430.94;;;0.82;72.37
6853;BME280;3465;42.144;24.722;2024-01-16T03:38:42;98439.19;;;0.89;72.38
6853;BME280;3465;42.144;24.722;2024-01-16T03:41:08;98450.81;;;0.75;72.73
6853;BME280;3465;42.144;24.722;2024-01-16T03:43:34;98446.78;;;0.70;73.38
6853;BME280;3465;42.144;24.722;2024-01-16T03:46:00;98442.25;;;0.76;73.23
6853;BME280;3465;42.144;24.722;2024-01-16T03:48:25;98450.53;;;0.81;73.74
6853;BME280;3465;42.144;24.722;2024-01-16T03:50:51;98464.03;;;0.65;75.24
6853;BME280;3465;42.144;24.722;2024-01-16T03:53:16;98466.56;;;0.85;72.97
6853;BME280;3465;42.144;24.722;2024-01-16T03:55:42;98452.97;;;0.84;72.99
6853;BME280;3465;42.144;24.722;2024-01-16T03:58:07;98460.38;;;0.91;72.42
6853;BME280;3465;42.144;24.722;2024-01-16T04:00:33;98470.38;;;0.76;72.78
6853;BME280;3465;42.144;24.722;2024-01-16T04:02:58;98478.56;;;0.83;72.85
6853;BME280;3465;42.144;24.722;2024-01-16T04:05:24;98485.88;;;0.92;72.09
6853;BME280;3465;42.144;24.722;2024-01-16T04:07:49;98473.88;;;0.74;72.36
6853;BME280;3465;42.144;24.722;2024-01-16T04:10:15;98487.50;;;0.74;72.72
6853;BME280;3465;42.144;24.722;2024-01-16T04:12:40;98491.81;;;0.93;71.78
6853;BME280;3465;42.144;24.722;2024-01-16T04:15:06;98507.34;;;0.68;72.82
6853;BME280;3465;42.144;24.722;2024-01-16T04:17:31;98506.66;;;0.84;72.44
6853;BME280;3465;42.144;24.722;2024-01-16T04:19:57;98511.25;;;0.76;72.52
6853;BME280;3465;42.144;24.722;2024-01-16T04:22:23;98517.06;;;0.80;72.36
6853;BME280;3465;42.144;24.722;2024-01-16T04:24:48;98540.56;;;0.88;72.58
6853;BME280;3465;42.144;24.722;2024-01-16T04:27:14;98532.13;;;0.86;72.49
6853;BME280;3465;42.144;24.722;2024-01-16T04:29:40;98531.97;;;0.91;72.30
6853;BME280;3465;42.144;24.722;2024-01-16T04:32:05;98543.75;;;0.93;72.32
6853;BME280;3465;42.144;24.722;2024-01-16T04:34:31;98538.78;;;1.10;71.75
6853;BME280;3465;42.144;24.722;2024-01-16T04:36:56;98537.34;;;1.23;71.32
6853;BME280;3465;42.144;24.722;2024-01-16T04:39:22;98543.38;;;1.22;71.44
6853;BME280;3465;42.144;24.722;2024-01-16T04:41:49;98534.53;;;1.09;71.27
6853;BME280;3465;42.144;24.722;2024-01-16T04:44:14;98542.28;;;1.08;71.73
6853;BME280;3465;42.144;24.722;2024-01-16T04:46:40;98543.19;;;1.07;71.33
6853;BME280;3465;42.144;24.722;2024-01-16T04:49:05;98565.38;;;1.06;72.10
6853;BME280;3465;42.144;24.722;2024-01-16T04:51:31;98558.72;;;1.22;71.31
6853;BME280;3465;42.144;24.722;2024-01-16T04:53:56;98562.47;;;1.14;71.46
6853;BME280;3465;42.144;24.722;2024-01-16T04:56:22;98562.41;;;1.15;71.37
6853;BME280;3465;42.144;24.722;2024-01-16T04:58:47;98564.94;;;1.17;71.67
6853;BME280;3465;42.144;24.722;2024-01-16T05:01:13;98582.44;;;1.06;72.32
6853;BME280;3465;42.144;24.722;2024-01-16T05:03:38;98578.66;;;0.94;72.23
6853;BME280;3465;42.144;24.722;2024-01-16T05:06:04;98585.00;;;1.06;72.47
6853;BME280;3465;42.144;24.722;2024-01-16T05:08:29;98592.28;;;0.95;72.18
6853;BME280;3465;42.144;24.722;2024-01-16T05:10:56;98592.97;;;0.98;71.74
6853;BME280;3465;42.144;24.722;2024-01-16T05:13:22;98594.84;;;0.95;72.43
6853;BME280;3465;42.144;24.722;2024-01-16T05:15:47;98601.91;;;0.88;71.23
6853;BME280;3465;42.144;24.722;2024-01-16T05:18:13;98612.88;;;0.70;72.30
6853;BME280;3465;42.144;24.722;2024-01-16T05:20:38;98614.78;;;0.87;71.57
6853;BME280;3465;42.144;24.722;2024-01-16T05:23:04;98624.69;;;0.94;71.03
6853;BME280;3465;42.144;24.722;2024-01-16T05:25:29;98628.78;;;0.98;70.75
6853;BME280;3465;42.144;24.722;2024-01-16T05:27:55;98629.41;;;1.03;70.62
6853;BME280;3465;42.144;24.722;2024-01-16T05:30:21;98655.44;;;1.13;70.11
6853;BME280;3465;42.144;24.722;2024-01-16T05:32:46;98650.75;;;1.02;70.32
6853;BME280;3465;42.144;24.722;2024-01-16T05:35:12;98650.16;;;0.96;70.80
6853;BME280;3465;42.144;24.722;2024-01-16T05:37:37;98666.66;;;0.89;71.14
6853;BME280;3465;42.144;24.722;2024-01-16T05:40:03;98663.56;;;0.80;71.31
6853;BME280;3465;42.144;24.722;2024-01-16T05:42:29;98687.88;;;0.91;71.87
6853;BME280;3465;42.144;24.722;2024-01-16T05:44:55;98675.34;;;0.84;71.17
6853;BME280;3465;42.144;24.722;2024-01-16T05:47:20;98679.78;;;0.79;71.60
6853;BME280;3465;42.144;24.722;2024-01-16T05:49:49;98688.28;;;1.02;71.04
6853;BME280;3465;42.144;24.722;2024-01-16T05:52:14;98705.94;;;0.86;71.59
6853;BME280;3465;42.144;24.722;2024-01-16T05:54:40;98709.28;;;0.88;71.68
6853;BME280;3465;42.144;24.722;2024-01-16T05:57:05;98711.19;;;1.05;70.53
6853;BME280;3465;42.144;24.722;2024-01-16T05:59:31;98710.97;;;1.09;70.56
6853;BME280;3465;42.144;24.722;2024-01-16T06:01:57;98719.25;;;1.16;70.09
6853;BME280;3465;42.144;24.722;2024-01-16T06:04:22;98726.00;;;1.38;69.45
6853;BME280;3465;42.144;24.722;2024-01-16T06:06:47;98713.84;;;1.63;68.66
6853;BME280;3465;42.144;24.722;2024-01-16T06:09:13;98714.81;;;1.81;68.15
6853;BME280;3465;42.144;24.722;2024-01-16T06:11:39;98721.56;;;2.02;68.50
6853;BME280;3465;42.144;24.722;2024-01-16T06:14:07;98727.34;;;2.26;68.47
6853;BME280;3465;42.144;24.722;2024-01-16T06:16:33;98740.56;;;2.55;68.28
6853;BME280;3465;42.144;24.722;2024-01-16T06:18:58;98743.38;;;2.87;68.12
6853;BME280;3465;42.144;24.722;2024-01-16T06:21:24;98750.00;;;3.09;67.83
6853;BME280;3465;42.144;24.722;2024-01-16T06:23:49;98760.53;;;3.39;67.54
6853;BME280;3465;42.144;24.722;2024-01-16T06:26:15;98773.09;;;3.62;67.18
6853;BME280;3465;42.144;24.722;2024-01-16T06:28:40;98777.66;;;3.74;66.77
6853;BME280;3465;42.144;24.722;2024-01-16T06:31:08;98792.06;;;3.94;66.79
6853;BME280;3465;42.144;24.722;2024-01-16T06:33:34;98803.53;;;4.04;67.13
6853;BME280;3465;42.144;24.722;2024-01-16T06:36:00;98790.91;;;4.16;66.72
6853;BME280;3465;42.144;24.722;2024-01-16T06:38:26;98788.94;;;4.21;67.35
6853;BME280;3465;42.144;24.722;2024-01-16T06:40:52;98794.94;;;4.70;66.18
6853;BME280;3465;42.144;24.722;2024-01-16T06:43:18;98797.44;;;4.72;66.08
6853;BME280;3465;42.144;24.722;2024-01-16T06:45:43;98807.91;;;5.00;66.41
6853;BME280;3465;42.144;24.722;2024-01-16T06:48:09;98812.72;;;5.22;65.57
6853;BME280;3465;42.144;24.722;2024-01-16T06:50:35;98824.84;;;5.51;64.62
6853;BME280;3465;42.144;24.722;2024-01-16T06:53:01;98830.28;;;5.76;64.12
6853;BME280;3465;42.144;24.722;2024-01-16T06:55:27;98837.34;;;5.88;64.32
6853;BME280;3465;42.144;24.722;2024-01-16T06:57:52;98846.56;;;5.92;64.23
6853;BME280;3465;42.144;24.722;2024-01-16T07:00:18;98845.97;;;6.03;64.03
6853;BME280;3465;42.144;24.722;2024-01-16T07:02:43;98857.25;;;6.16;63.24
6853;BME280;3465;42.144;24.722;2024-01-16T07:05:11;98863.53;;;6.26;63.54
6853;BME280;3465;42.144;24.722;2024-01-16T07:07:37;98871.28;;;6.26;63.12
6853;BME280;3465;42.144;24.722;2024-01-16T07:10:03;98890.53;;;6.34;62.93
6853;BME280;3465;42.144;24.722;2024-01-16T07:12:29;98891.47;;;6.33;62.75
6853;BME280;3465;42.144;24.722;2024-01-16T07:14:54;98900.28;;;6.29;63.75
6853;BME280;3465;42.144;24.722;2024-01-16T07:17:20;98909.66;;;6.30;63.53
6853;BME280;3465;42.144;24.722;2024-01-16T07:19:45;98915.66;;;6.31;64.02
6853;BME280;3465;42.144;24.722;2024-01-16T07:22:11;98923.97;;;6.36;63.88
6853;BME280;3465;42.144;24.722;2024-01-16T07:24:36;98937.22;;;6.30;64.63
6853;BME280;3465;42.144;24.722;2024-01-16T07:27:02;98941.63;;;6.28;64.17
6853;BME280;3465;42.144;24.722;2024-01-16T07:29:28;98946.44;;;6.34;64.96
6853;BME280;3465;42.144;24.722;2024-01-16T07:31:53;98945.81;;;6.44;64.65
6853;BME280;3465;42.144;24.722;2024-01-16T07:34:19;98960.19;;;6.48;64.37
6853;BME280;3465;42.144;24.722;2024-01-16T07:36:47;98964.16;;;6.40;64.74
6853;BME280;3465;42.144;24.722;2024-01-16T07:39:13;98969.53;;;6.51;64.30
6853;BME280;3465;42.144;24.722;2024-01-16T07:41:39;98976.06;;;6.56;64.00
6853;BME280;3465;42.144;24.722;2024-01-16T07:44:05;98994.53;;;6.64;63.33
6853;BME280;3465;42.144;24.722;2024-01-16T07:46:31;99008.84;;;6.70;63.21
6853;BME280;3465;42.144;24.722;2024-01-16T07:48:56;99004.84;;;6.64;62.66
6853;BME280;3465;42.144;24.722;2024-01-16T07:51:22;99018.22;;;6.71;62.40
6853;BME280;3465;42.144;24.722;2024-01-16T07:53:47;99020.06;;;6.69;62.48
6853;BME280;3465;42.144;24.722;2024-01-16T07:56:14;99036.13;;;6.74;62.08
6853;BME280;3465;42.144;24.722;2024-01-16T07:58:40;99048.31;;;6.72;61.98
6853;BME280;3465;42.144;24.722;2024-01-16T08:01:05;99051.97;;;6.68;62.18
6853;BME280;3465;42.144;24.722;2024-01-16T08:03:31;99059.03;;;6.80;61.78
6853;BME280;3465;42.144;24.722;2024-01-16T08:05:57;99059.91;;;6.79;61.66
6853;BME280;3465;42.144;24.722;2024-01-16T08:08:24;99060.66;;;6.81;61.37
6853;BME280;3465;42.144;24.722;2024-01-16T08:10:49;99061.81;;;6.91;60.14
6853;BME280;3465;42.144;24.722;2024-01-16T08:13:15;99071.13;;;6.94;60.39
6853;BME280;3465;42.144;24.722;2024-01-16T08:15:40;99066.63;;;6.97;59.89
6853;BME280;3465;42.144;24.722;2024-01-16T08:18:06;99075.00;;;7.01;60.19
6853;BME280;3465;42.144;24.722;2024-01-16T08:20:31;99075.09;;;6.99;59.33
6853;BME280;3465;42.144;24.722;2024-01-16T08:22:57;99083.44;;;7.04;59.51
6853;BME280;3465;42.144;24.722;2024-01-16T08:25:23;99082.16;;;7.11;59.15
6853;BME280;3465;42.144;24.722;2024-01-16T08:27:48;99084.72;;;7.11;59.58
6853;BME280;3465;42.144;24.722;2024-01-16T08:30:14;99093.78;;;7.18;58.72
6853;BME280;3465;42.144;24.722;2024-01-16T08:32:40;99098.41;;;7.27;57.99
6853;BME280;3465;42.144;24.722;2024-01-16T08:35:05;99092.78;;;7.35;57.21
6853;BME280;3465;42.144;24.722;2024-01-16T08:37:34;99104.09;;;7.48;57.89
6853;BME280;3465;42.144;24.722;2024-01-16T08:39:59;99104.56;;;7.68;57.17
6853;BME280;3465;42.144;24.722;2024-01-16T08:42:25;99109.06;;;7.65;56.84
6853;BME280;3465;42.144;24.722;2024-01-16T08:44:50;99112.78;;;7.75;56.05
6853;BME280;3465;42.144;24.722;2024-01-16T08:47:16;99120.91;;;7.83;56.09
6853;BME280;3465;42.144;24.722;2024-01-16T08:49:42;99117.69;;;7.94;55.22
6853;BME280;3465;42.144;24.722;2024-01-16T08:52:08;99120.91;;;7.97;54.93
6853;BME280;3465;42.144;24.722;2024-01-16T08:54:34;99127.66;;;7.86;54.29
6853;BME280;3465;42.144;24.722;2024-01-16T08:56:59;99138.09;;;7.84;54.28
6853;BME280;3465;42.144;24.722;2024-01-16T08:59:25;99149.16;;;7.86;54.61
6853;BME280;3465;42.144;24.722;2024-01-16T09:01:50;99152.13;;;7.80;53.84
6853;BME280;3465;42.144;24.722;2024-01-16T09:04:17;99156.81;;;7.74;54.06
6853;BME280;3465;42.144;24.722;2024-01-16T09:06:42;99167.78;;;7.77;53.77
6853;BME280;3465;42.144;24.722;2024-01-16T09:09:08;99168.75;;;7.90;53.91
6853;BME280;3465;42.144;24.722;2024-01-16T09:11:34;99164.78;;;8.13;53.73
6853;BME280;3465;42.144;24.722;2024-01-16T09:14:00;99166.66;;;8.39;51.54
6853;BME280;3465;42.144;24.722;2024-01-16T09:16:25;99163.38;;;8.90;49.58
6853;BME280;3465;42.144;24.722;2024-01-16T09:18:51;99157.50;;;9.27;48.54
6853;BME280;3465;42.144;24.722;2024-01-16T09:21:16;99156.88;;;9.36;48.56
6853;BME280;3465;42.144;24.722;2024-01-16T09:23:42;99177.00;;;9.33;47.29
6853;BME280;3465;42.144;24.722;2024-01-16T09:26:07;99185.53;;;9.60;46.42
6853;BME280;3465;42.144;24.722;2024-01-16T09:28:33;99175.31;;;9.32;47.90
6853;BME280;3465;42.144;24.722;2024-01-16T09:30:58;99185.00;;;9.43;47.44
6853;BME280;3465;42.144;24.722;2024-01-16T09:33:24;99176.41;;;9.55;47.23
6853;BME280;3465;42.144;24.722;2024-01-16T09:35:51;99178.69;;;9.47;45.88
6853;BME280;3465;42.144;24.722;2024-01-16T09:38:16;99183.03;;;9.46;45.53
6853;BME280;3465;42.144;24.722;2024-01-16T09:40:42;99202.72;;;9.49;45.62
6853;BME280;3465;42.144;24.722;2024-01-16T09:43:07;99210.72;;;9.58;45.69
6853;BME280;3465;42.144;24.722;2024-01-16T09:45:37;99207.25;;;9.32;45.20
6853;BME280;3465;42.144;24.722;2024-01-16T09:48:04;99208.19;;;9.05;45.42
6853;BME280;3465;42.144;24.722;2024-01-16T09:50:30;99206.63;;;9.02;45.84
6853;BME280;3465;42.144;24.722;2024-01-16T09:52:56;99206.28;;;9.21;43.83
6853;BME280;3465;42.144;24.722;2024-01-16T09:55:21;99207.59;;;9.41;44.20
6853;BME280;3465;42.144;24.722;2024-01-16T09:57:51;99206.91;;;9.51;43.44
6853;BME280;3465;42.144;24.722;2024-01-16T10:00:17;99200.59;;;9.55;43.58
6853;BME280;3465;42.144;24.722;2024-01-16T10:02:43;99200.91;;;9.63;42.75
6853;BME280;3465;42.144;24.722;2024-01-16T10:05:13;99207.31;;;10.22;41.93
6853;BME280;3465;42.144;24.722;2024-01-16T10:07:40;99203.41;;;10.53;40.23
6853;BME280;3465;42.144;24.722;2024-01-16T10:10:06;99211.50;;;10.97;39.20
6853;BME280;3465;42.144;24.722;2024-01-16T10:12:37;99209.47;;;13.37;33.20
6853;BME280;3465;42.144;24.722;2024-01-16T10:15:07;99203.19;;;12.75;34.19
6853;BME280;3465;42.144;24.722;2024-01-16T10:17:40;99223.13;;;11.86;36.54
6853;BME280;3465;42.144;24.722;2024-01-16T10:20:07;99221.25;;;11.30;36.89
6853;BME280;3465;42.144;24.722;2024-01-16T10:22:39;99233.84;;;10.99;38.43
6853;BME280;3465;42.144;24.722;2024-01-16T10:27:31;99231.03;;;10.54;39.68
6853;BME280;3465;42.144;24.722;2024-01-16T10:29:58;99241.75;;;10.98;39.63
6853;BME280;3465;42.144;24.722;2024-01-16T10:32:31;99234.09;;;11.20;38.79
6853;BME280;3465;42.144;24.722;2024-01-16T10:37:51;99231.19;;;10.88;39.94
6853;BME280;3465;42.144;24.722;2024-01-16T10:40:21;99246.84;;;10.26;40.21
6853;BME280;3465;42.144;24.722;2024-01-16T10:43:00;99208.13;;;10.35;40.62
6853;BME280;3465;42.144;24.722;2024-01-16T10:45:26;99246.41;;;10.57;40.20
6853;BME280;3465;42.144;24.722;2024-01-16T10:48:06;99250.28;;;10.26;40.49
6853;BME280;3465;42.144;24.722;2024-01-16T10:50:32;99253.03;;;10.73;40.30
6853;BME280;3465;42.144;24.722;2024-01-16T10:53:05;99250.28;;;10.87;39.12
6853;BME280;3465;42.144;24.722;2024-01-16T10:55:52;99247.88;;;11.92;36.28
6853;BME280;3465;42.144;24.722;2024-01-16T10:58:22;99242.88;;;13.96;33.58
6853;BME280;3465;42.144;24.722;2024-01-16T11:00:52;99248.59;;;13.26;33.69
6853;BME280;3465;42.144;24.722;2024-01-16T11:03:46;99250.78;;;12.44;35.24
6853;BME280;3465;42.144;24.722;2024-01-16T11:06:15;99257.63;;;11.06;38.09
6853;BME280;3465;42.144;24.722;2024-01-16T11:08:42;99266.00;;;10.86;38.96
6853;BME280;3465;42.144;24.722;2024-01-16T11:11:08;99265.84;;;12.40;35.59
6853;BME280;3465;42.144;24.722;2024-01-16T11:13:35;99277.06;;;11.37;36.42
6853;BME280;3465;42.144;24.722;2024-01-16T11:16:05;99260.06;;;11.20;37.58
6853;BME280;3465;42.144;24.722;2024-01-16T11:18:33;99260.75;;;10.12;38.43
6853;BME280;3465;42.144;24.722;2024-01-16T11:21:01;99270.44;;;9.83;39.72
6853;BME280;3465;42.144;24.722;2024-01-16T11:23:28;99255.16;;;10.18;40.03
6853;BME280;3465;42.144;24.722;2024-01-16T11:25:53;99266.25;;;10.58;38.51
6853;BME280;3465;42.144;24.722;2024-01-16T11:28:19;99269.03;;;10.55;37.91
6853;BME280;3465;42.144;24.722;2024-01-16T11:30:45;99270.09;;;10.14;37.56
6853;BME280;3465;42.144;24.722;2024-01-16T11:36:02;99258.03;;;10.64;37.30
6853;BME280;3465;42.144;24.722;2024-01-16T11:38:29;99267.50;;;10.40;37.17
6853;BME280;3465;42.144;24.722;2024-01-16T11:40:55;99264.16;;;10.12;37.08
6853;BME280;3465;42.144;24.722;2024-01-16T11:46:05;99252.44;;;11.30;36.27
6853;BME280;3465;42.144;24.722;2024-01-16T11:48:33;99257.19;;;12.51;33.23
6853;BME280;3465;42.144;24.722;2024-01-16T11:50:58;99256.81;;;13.00;31.15
6853;BME280;3465;42.144;24.722;2024-01-16T11:56:13;99269.44;;;15.12;28.27
6853;BME280;3465;42.144;24.722;2024-01-16T12:01:17;99272.69;;;13.30;30.62
6853;BME280;3465;42.144;24.722;2024-01-16T12:03:45;99289.00;;;14.06;29.80
6853;BME280;3465;42.144;24.722;2024-01-16T12:06:10;99297.59;;;13.12;31.41
6853;BME280;3465;42.144;24.722;2024-01-16T12:08:36;99289.69;;;12.12;32.05
6853;BME280;3465;42.144;24.722;2024-01-16T12:11:04;99285.84;;;11.94;33.61
6853;BME280;3465;42.144;24.722;2024-01-16T12:13:29;99289.63;;;11.43;33.47
6853;BME280;3465;42.144;24.722;2024-01-16T12:16:02;99291.00;;;12.18;33.62
6853;BME280;3465;42.144;24.722;2024-01-16T12:18:31;99290.84;;;12.08;33.06
6853;BME280;3465;42.144;24.722;2024-01-16T12:20:57;99308.03;;;11.63;32.93
6853;BME280;3465;42.144;24.722;2024-01-16T12:23:24;99291.25;;;10.96;34.64
6853;BME280;3465;42.144;24.722;2024-01-16T12:25:52;99295.16;;;11.02;34.29
6853;BME280;3465;42.144;24.722;2024-01-16T12:28:21;99297.25;;;11.33;34.43
6853;BME280;3465;42.144;24.722;2024-01-16T12:30:51;99311.16;;;11.92;33.06
6853;BME280;3465;42.144;24.722;2024-01-16T12:33:22;99308.16;;;11.38;32.94
6853;BME280;3465;42.144;24.722;2024-01-16T12:35:47;99321.25;;;11.73;33.46
6853;BME280;3465;42.144;24.722;2024-01-16T12:38:14;99318.72;;;12.30;31.07
6853;BME280;3465;42.144;24.722;2024-01-16T12:40:44;99313.66;;;12.50;32.10
6853;BME280;3465;42.144;24.722;2024-01-16T12:43:11;99320.56;;;13.40;30.26
6853;BME280;3465;42.144;24.722;2024-01-16T12:45:37;99325.78;;;14.03;28.24
6853;BME280;3465;42.144;24.722;2024-01-16T12:48:03;99329.44;;;13.80;29.23
6853;BME280;3465;42.144;24.722;2024-01-16T12:50:30;99333.56;;;13.51;29.38
6853;BME280;3465;42.144;24.722;2024-01-16T12:53:07;99342.94;;;13.42;30.41
6853;BME280;3465;42.144;24.722;2024-01-16T12:55:34;99336.34;;;13.16;30.32
6853;BME280;3465;42.144;24.722;2024-01-16T12:58:22;99343.81;;;13.32;29.67
6853;BME280;3465;42.144;24.722;2024-01-16T13:00:54;99344.38;;;12.69;31.06
6853;BME280;3465;42.144;24.722;2024-01-16T13:03:24;99356.66;;;12.56;31.85
6853;BME280;3465;42.144;24.722;2024-01-16T13:05:56;99362.28;;;13.29;30.00
6853;BME280;3465;42.144;24.722;2024-01-16T13:08:22;99325.78;;;14.03;29.12
6853;BME280;3465;42.144;24.722;2024-01-16T13:11:08;99363.44;;;13.58;29.85
6853;BME280;3465;42.144;24.722;2024-01-16T13:13:35;99375.22;;;13.08;30.21
6853;BME280;3465;42.144;24.722;2024-01-16T13:16:03;99370.31;;;12.70;29.80
6853;BME280;3465;42.144;24.722;2024-01-16T13:18:31;99375.06;;;12.88;29.51
6853;BME280;3465;42.144;24.722;2024-01-16T13:20:59;99385.84;;;12.03;32.20
6853;BME280;3465;42.144;24.722;2024-01-16T13:23:25;99383.94;;;12.28;32.02
6853;BME280;3465;42.144;24.722;2024-01-16T13:25:52;99385.47;;;11.96;32.07
6853;BME280;3465;42.144;24.722;2024-01-16T13:28:18;99388.66;;;11.27;32.07
6853;BME280;3465;42.144;24.722;2024-01-16T13:30:45;99400.63;;;11.17;32.93
6853;BME280;3465;42.144;24.722;2024-01-16T13:33:11;99396.94;;;10.96;33.41